»·PEaware :: N803HP KBUR-KFUL

N803HP :: KBUR-KFUL

FLIGHT INFORMATION

Flight Status: Arrived
Operator: Privately registered:
United States
More flights under this callsign
Pilot: J K. (24292)
Aircraft: CESSNA 172 SKYHAWK
(C172)
More flights by this aircraft type
Origin: KBUR Bob Hope-Burbank
United States
Destination: KFUL Fullerton Mun
United States
More flights between these airports :: More routes between these airports
Route: KBUR VPLRB KEMT VPLSC KFUL
File this flight plan on PilotEdge
Remarks: CAT-9
Altitude:
(Current/Filed)
3,000ft
Speed:
(Current/Filed)
114kts
Departed: 15-May-19 08:00 PM
Arrived: 15-May-19 08:21 PM
Distance/Time
Traveled:
0nm/0:21
Distance/Time
To Go:
Arrived

Flight Plot

Page will automatically refresh every two minutes.

Flight plan parsing failed; only flown route is shown


Map Options




Map Legend


Flown Route
Filed Route
Departure Airport
Arrival Airport
Navaid (VOR, NDB)
Fix

Horizontal Profiles

Position Reports

Time Latitude Longitude Heading Altitude Ground
Speed
15-May-19 19:15 34.196809 -118.351970 179 697ft 0kts
15-May-19 19:16 34.196338 -118.367565 358 721ft 0kts
15-May-19 19:17 34.196338 -118.367565 358 721ft 0kts
15-May-19 19:18 34.196338 -118.367565 358 721ft 0kts
15-May-19 19:19 34.196338 -118.367565 358 721ft 0kts
15-May-19 19:20 34.196338 -118.367565 358 721ft 0kts
15-May-19 19:21 34.196338 -118.367565 358 721ft 0kts
15-May-19 19:22 34.196338 -118.367565 358 721ft 0kts
15-May-19 19:23 34.196338 -118.367565 358 721ft 0kts
15-May-19 19:24 34.196338 -118.367565 358 721ft 0kts
15-May-19 19:25 34.196338 -118.367565 358 721ft 0kts
15-May-19 19:26 34.196338 -118.367565 358 721ft 0kts
15-May-19 19:27 34.196338 -118.367565 358 721ft 0kts
15-May-19 19:28 34.196338 -118.367565 358 721ft 0kts
15-May-19 19:29 34.196338 -118.367565 358 721ft 0kts
15-May-19 19:30 34.196338 -118.367565 358 721ft 0kts
15-May-19 19:31 34.196338 -118.367565 358 721ft 0kts
15-May-19 19:32 34.196338 -118.367565 358 721ft 0kts
15-May-19 19:33 34.196338 -118.367565 358 721ft 0kts
15-May-19 19:34 34.196338 -118.367565 358 721ft 0kts
15-May-19 19:35 34.196338 -118.367565 358 721ft 0kts
15-May-19 19:36 34.196338 -118.367565 358 721ft 0kts
15-May-19 19:37 34.196469 -118.367250 87 722ft 4kts
15-May-19 19:38 34.196926 -118.365961 87 721ft 7kts
15-May-19 19:39 34.196892 -118.364973 95 719ft 0kts
15-May-19 19:40 34.196892 -118.364973 95 719ft 0kts
15-May-19 19:41 34.196892 -118.364973 95 719ft 0kts
15-May-19 19:42 34.196892 -118.364973 95 719ft 0kts
15-May-19 19:43 34.196892 -118.364973 95 719ft 0kts
15-May-19 19:44 34.196892 -118.364973 95 719ft 0kts
15-May-19 19:45 34.196892 -118.364967 96 719ft 0kts
15-May-19 19:46 34.196892 -118.364967 96 719ft 0kts
15-May-19 19:47 34.196892 -118.364967 96 719ft 0kts
15-May-19 19:48 34.196820 -118.361064 91 715ft 12kts
15-May-19 19:49 34.198118 -118.360282 4 716ft 14kts
15-May-19 19:50 34.199445 -118.358070 347 716ft 7kts
15-May-19 19:51 34.203012 -118.359049 347 732ft 16kts
15-May-19 19:52 34.207553 -118.360315 352 749ft 14kts
15-May-19 19:53 34.210993 -118.361255 346 767ft 12kts
15-May-19 19:54 34.211954 -118.361418 45 769ft 0kts
15-May-19 19:55 34.211954 -118.361418 45 769ft 0kts
15-May-19 19:56 34.211954 -118.361418 45 769ft 0kts
15-May-19 19:57 34.211954 -118.361418 45 769ft 0kts
15-May-19 19:58 34.212086 -118.360407 167 767ft 2kts
15-May-19 19:59 34.194431 -118.355627 173 1302ft 77kts
15-May-19 20:00 34.182072 -118.336671 101 2139ft 83kts
15-May-19 20:01 34.179262 -118.305518 101 2553ft 105kts
15-May-19 20:02 34.174058 -118.268292 102 2497ft 115kts
15-May-19 20:03 34.169474 -118.230162 106 2443ft 117kts
15-May-19 20:04 34.162523 -118.191749 110 2529ft 119kts
15-May-19 20:05 34.151894 -118.155770 108 2506ft 110kts
15-May-19 20:06 34.139048 -118.123190 131 2732ft 95kts
15-May-19 20:07 34.118577 -118.097542 140 2890ft 110kts
15-May-19 20:08 34.096834 -118.074726 149 2806ft 107kts
15-May-19 20:09 34.084459 -118.045259 86 2968ft 117kts
15-May-19 20:10 34.068704 -118.016679 170 2751ft 110kts
15-May-19 20:11 34.041383 -118.004366 156 2719ft 106kts
15-May-19 20:12 34.016080 -117.984674 150 2771ft 108kts
15-May-19 20:13 33.989077 -117.964705 151 2719ft 119kts
15-May-19 20:14 33.959892 -117.945325 152 2516ft 128kts
15-May-19 20:15 33.929846 -117.930640 160 1970ft 113kts
15-May-19 20:16 33.902871 -117.920050 163 1468ft 99kts
15-May-19 20:17 33.882208 -117.926891 256 1102ft 94kts
15-May-19 20:18 33.877636 -117.951249 259 658ft 72kts
15-May-19 20:19 33.873051 -117.974556 258 138ft 68kts
15-May-19 20:20 33.870802 -117.983003 96 90ft 6kts
15-May-19 20:21 33.870795 -117.982575 88 90ft 0kts
15-May-19 20:22 33.870795 -117.982575 88 90ft 0kts
15-May-19 20:23 33.870795 -117.982575 88 90ft 0kts
15-May-19 20:24 33.870795 -117.982575 88 90ft 0kts
15-May-19 20:25 33.870795 -117.982575 88 90ft 0kts
15-May-19 20:26 33.870795 -117.982575 88 90ft 0kts
15-May-19 20:27 33.870795 -117.982575 88 90ft 0kts
15-May-19 20:28 33.870795 -117.982575 88 90ft 0kts
15-May-19 20:29 33.870795 -117.982575 88 90ft 0kts
15-May-19 20:30 33.870795 -117.982575 88 90ft 0kts
15-May-19 20:31 34.200215 -118.358844 258 721ft 0kts
15-May-19 20:32 34.200215 -118.358844 258 721ft 0kts
15-May-19 20:33 34.200215 -118.358844 258 721ft 0kts
15-May-19 20:34 34.200215 -118.358844 258 721ft 0kts
15-May-19 20:35 34.200215 -118.358844 258 721ft 0kts

Navigation Log

Ident Type
Flight plan parsing failed, navigation log unavailable